sensor_id;sensor_type;location;lat;lon;timestamp;temperature;humidity
56172;DHT22;42052;41.634;-0.946;2023-02-15T00:02:23;20.40;37.70
56172;DHT22;42052;41.634;-0.946;2023-02-15T00:05:10;20.40;37.80
56172;DHT22;42052;41.634;-0.946;2023-02-15T00:07:56;20.30;37.80
56172;DHT22;42052;41.634;-0.946;2023-02-15T00:10:42;20.40;38.00
56172;DHT22;42052;41.634;-0.946;2023-02-15T00:13:28;20.30;38.00
56172;DHT22;42052;41.634;-0.946;2023-02-15T00:16:14;20.30;37.80
56172;DHT22;42052;41.634;-0.946;2023-02-15T00:19:01;20.30;37.90
56172;DHT22;42052;41.634;-0.946;2023-02-15T00:21:48;20.30;37.90
56172;DHT22;42052;41.634;-0.946;2023-02-15T00:24:34;20.30;38.00
56172;DHT22;42052;41.634;-0.946;2023-02-15T00:27:20;20.30;38.00
56172;DHT22;42052;41.634;-0.946;2023-02-15T00:30:07;20.30;38.10
56172;DHT22;42052;41.634;-0.946;2023-02-15T00:32:53;20.30;38.00
56172;DHT22;42052;41.634;-0.946;2023-02-15T00:35:39;20.30;38.30
56172;DHT22;42052;41.634;-0.946;2023-02-15T00:38:29;20.30;38.20
56172;DHT22;42052;41.634;-0.946;2023-02-15T00:41:15;20.30;38.30
56172;DHT22;42052;41.634;-0.946;2023-02-15T00:44:02;20.20;38.30
56172;DHT22;42052;41.634;-0.946;2023-02-15T00:46:48;20.20;38.30
56172;DHT22;42052;41.634;-0.946;2023-02-15T00:49:34;20.20;38.40
56172;DHT22;42052;41.634;-0.946;2023-02-15T00:52:20;20.20;38.40
56172;DHT22;42052;41.634;-0.946;2023-02-15T00:55:07;20.20;38.50
56172;DHT22;42052;41.634;-0.946;2023-02-15T00:57:53;20.20;38.40
56172;DHT22;42052;41.634;-0.946;2023-02-15T01:00:40;20.20;38.50
56172;DHT22;42052;41.634;-0.946;2023-02-15T01:03:27;20.20;38.50
56172;DHT22;42052;41.634;-0.946;2023-02-15T01:06:15;20.20;38.80
56172;DHT22;42052;41.634;-0.946;2023-02-15T01:09:01;20.10;38.50
56172;DHT22;42052;41.634;-0.946;2023-02-15T01:11:47;20.20;38.50
56172;DHT22;42052;41.634;-0.946;2023-02-15T01:14:33;20.10;38.40
56172;DHT22;42052;41.634;-0.946;2023-02-15T01:17:19;20.10;38.40
56172;DHT22;42052;41.634;-0.946;2023-02-15T01:20:06;20.10;38.30
56172;DHT22;42052;41.634;-0.946;2023-02-15T01:22:53;20.10;38.50
56172;DHT22;42052;41.634;-0.946;2023-02-15T01:25:39;20.20;38.50
56172;DHT22;42052;41.634;-0.946;2023-02-15T01:28:26;20.10;38.50
56172;DHT22;42052;41.634;-0.946;2023-02-15T01:31:14;20.10;38.50
56172;DHT22;42052;41.634;-0.946;2023-02-15T01:34:00;20.10;38.40
56172;DHT22;42052;41.634;-0.946;2023-02-15T01:36:46;20.10;38.50
56172;DHT22;42052;41.634;-0.946;2023-02-15T01:39:32;20.10;38.70
56172;DHT22;42052;41.634;-0.946;2023-02-15T01:42:23;20.10;38.60
56172;DHT22;42052;41.634;-0.946;2023-02-15T01:45:20;20.10;38.70
56172;DHT22;42052;41.634;-0.946;2023-02-15T01:48:24;20.10;38.70
56172;DHT22;42052;41.634;-0.946;2023-02-15T01:51:15;20.10;38.60
56172;DHT22;42052;41.634;-0.946;2023-02-15T01:54:29;20.00;38.60
56172;DHT22;42052;41.634;-0.946;2023-02-15T01:57:16;20.00;38.60
56172;DHT22;42052;41.634;-0.946;2023-02-15T02:00:04;20.00;38.70
56172;DHT22;42052;41.634;-0.946;2023-02-15T02:02:55;20.00;38.50
56172;DHT22;42052;41.634;-0.946;2023-02-15T02:05:42;20.00;38.60
56172;DHT22;42052;41.634;-0.946;2023-02-15T02:08:28;20.00;38.60
56172;DHT22;42052;41.634;-0.946;2023-02-15T02:11:15;20.00;38.60
56172;DHT22;42052;41.634;-0.946;2023-02-15T02:14:01;20.00;38.60
56172;DHT22;42052;41.634;-0.946;2023-02-15T02:35:56;19.90;38.70
56172;DHT22;42052;41.634;-0.946;2023-02-15T02:39:07;19.90;38.70
56172;DHT22;42052;41.634;-0.946;2023-02-15T02:42:02;19.90;38.70
56172;DHT22;42052;41.634;-0.946;2023-02-15T02:44:56;19.90;38.90
56172;DHT22;42052;41.634;-0.946;2023-02-15T02:47:52;19.90;39.00
56172;DHT22;42052;41.634;-0.946;2023-02-15T02:50:40;19.90;39.00
56172;DHT22;42052;41.634;-0.946;2023-02-15T02:53:29;20.00;39.00
56172;DHT22;42052;41.634;-0.946;2023-02-15T02:59:33;20.00;39.00
56172;DHT22;42052;41.634;-0.946;2023-02-15T03:02:26;20.00;39.00
56172;DHT22;42052;41.634;-0.946;2023-02-15T03:05:21;20.00;39.00
56172;DHT22;42052;41.634;-0.946;2023-02-15T03:08:09;20.00;39.00
56172;DHT22;42052;41.634;-0.946;2023-02-15T03:10:59;20.00;39.80
56172;DHT22;42052;41.634;-0.946;2023-02-15T03:13:48;20.10;39.00
56172;DHT22;42052;41.634;-0.946;2023-02-15T03:16:34;20.00;39.00
56172;DHT22;42052;41.634;-0.946;2023-02-15T03:19:28;20.00;39.00
56172;DHT22;42052;41.634;-0.946;2023-02-15T03:22:19;20.00;39.00
56172;DHT22;42052;41.634;-0.946;2023-02-15T03:25:31;20.00;39.00
56172;DHT22;42052;41.634;-0.946;2023-02-15T03:28:26;20.10;39.00
56172;DHT22;42052;41.634;-0.946;2023-02-15T03:31:14;20.10;39.00
56172;DHT22;42052;41.634;-0.946;2023-02-15T03:34:04;20.10;39.00
56172;DHT22;42052;41.634;-0.946;2023-02-15T03:39:53;20.10;38.90
56172;DHT22;42052;41.634;-0.946;2023-02-15T03:42:40;20.10;38.80
56172;DHT22;42052;41.634;-0.946;2023-02-15T03:45:31;20.10;38.80
56172;DHT22;42052;41.634;-0.946;2023-02-15T03:48:18;20.10;38.80
56172;DHT22;42052;41.634;-0.946;2023-02-15T03:51:08;20.10;38.80
56172;DHT22;42052;41.634;-0.946;2023-02-15T03:54:27;20.10;38.80
56172;DHT22;42052;41.634;-0.946;2023-02-15T03:57:29;20.10;38.80
56172;DHT22;42052;41.634;-0.946;2023-02-15T04:00:36;20.10;38.80
56172;DHT22;42052;41.634;-0.946;2023-02-15T04:03:50;20.10;38.80
56172;DHT22;42052;41.634;-0.946;2023-02-15T04:06:37;20.10;38.80
56172;DHT22;42052;41.634;-0.946;2023-02-15T04:09:23;20.10;38.70
56172;DHT22;42052;41.634;-0.946;2023-02-15T04:12:28;20.10;38.70
56172;DHT22;42052;41.634;-0.946;2023-02-15T04:15:14;20.10;38.70
56172;DHT22;42052;41.634;-0.946;2023-02-15T04:18:18;20.10;38.70
56172;DHT22;42052;41.634;-0.946;2023-02-15T04:21:04;20.10;38.70
56172;DHT22;42052;41.634;-0.946;2023-02-15T04:24:09;20.20;38.80
56172;DHT22;42052;41.634;-0.946;2023-02-15T04:27:14;20.10;38.80
56172;DHT22;42052;41.634;-0.946;2023-02-15T04:30:00;20.20;38.80
56172;DHT22;42052;41.634;-0.946;2023-02-15T04:32:46;20.10;38.70
56172;DHT22;42052;41.634;-0.946;2023-02-15T04:35:33;20.20;38.80
56172;DHT22;42052;41.634;-0.946;2023-02-15T04:38:19;20.10;38.70
56172;DHT22;42052;41.634;-0.946;2023-02-15T04:41:05;20.20;38.80
56172;DHT22;42052;41.634;-0.946;2023-02-15T04:43:51;20.10;38.70
56172;DHT22;42052;41.634;-0.946;2023-02-15T04:46:37;20.10;38.70
56172;DHT22;42052;41.634;-0.946;2023-02-15T04:49:23;20.10;38.70
56172;DHT22;42052;41.634;-0.946;2023-02-15T04:52:10;20.20;38.80
56172;DHT22;42052;41.634;-0.946;2023-02-15T04:54:56;20.20;38.80
56172;DHT22;42052;41.634;-0.946;2023-02-15T04:57:42;20.10;38.80
56172;DHT22;42052;41.634;-0.946;2023-02-15T05:00:28;20.10;38.70
56172;DHT22;42052;41.634;-0.946;2023-02-15T05:03:14;20.10;38.90
56172;DHT22;42052;41.634;-0.946;2023-02-15T05:06:01;20.10;38.80
56172;DHT22;42052;41.634;-0.946;2023-02-15T05:08:47;20.10;38.60
56172;DHT22;42052;41.634;-0.946;2023-02-15T05:11:33;20.10;38.60
56172;DHT22;42052;41.634;-0.946;2023-02-15T05:14:19;20.10;38.70
56172;DHT22;42052;41.634;-0.946;2023-02-15T05:17:05;20.20;38.80
56172;DHT22;42052;41.634;-0.946;2023-02-15T05:19:51;20.20;38.90
56172;DHT22;42052;41.634;-0.946;2023-02-15T05:22:37;20.20;38.90
56172;DHT22;42052;41.634;-0.946;2023-02-15T05:25:23;20.20;38.90
56172;DHT22;42052;41.634;-0.946;2023-02-15T05:28:28;20.20;38.80
56172;DHT22;42052;41.634;-0.946;2023-02-15T05:31:18;20.20;38.80
56172;DHT22;42052;41.634;-0.946;2023-02-15T05:34:04;20.20;38.80
56172;DHT22;42052;41.634;-0.946;2023-02-15T05:36:50;20.20;38.80
56172;DHT22;42052;41.634;-0.946;2023-02-15T05:39:36;20.20;38.70
56172;DHT22;42052;41.634;-0.946;2023-02-15T05:42:22;20.20;38.70
56172;DHT22;42052;41.634;-0.946;2023-02-15T05:45:09;20.20;38.70
56172;DHT22;42052;41.634;-0.946;2023-02-15T05:47:55;20.20;38.60
56172;DHT22;42052;41.634;-0.946;2023-02-15T05:50:44;20.20;38.50
56172;DHT22;42052;41.634;-0.946;2023-02-15T05:53:32;20.20;38.50
56172;DHT22;42052;41.634;-0.946;2023-02-15T05:56:19;20.20;38.40
56172;DHT22;42052;41.634;-0.946;2023-02-15T05:59:05;20.20;38.50
56172;DHT22;42052;41.634;-0.946;2023-02-15T06:01:51;20.20;38.50
56172;DHT22;42052;41.634;-0.946;2023-02-15T06:04:37;20.30;38.50
56172;DHT22;42052;41.634;-0.946;2023-02-15T06:07:23;20.20;38.50
56172;DHT22;42052;41.634;-0.946;2023-02-15T06:10:09;20.20;38.60
56172;DHT22;42052;41.634;-0.946;2023-02-15T06:12:55;20.20;38.50
56172;DHT22;42052;41.634;-0.946;2023-02-15T06:15:41;20.30;38.40
56172;DHT22;42052;41.634;-0.946;2023-02-15T06:18:27;20.30;38.30
56172;DHT22;42052;41.634;-0.946;2023-02-15T06:21:13;20.30;37.80
56172;DHT22;42052;41.634;-0.946;2023-02-15T06:23:59;20.30;37.90
56172;DHT22;42052;41.634;-0.946;2023-02-15T06:26:46;20.30;38.60
56172;DHT22;42052;41.634;-0.946;2023-02-15T06:29:32;20.30;40.00
56172;DHT22;42052;41.634;-0.946;2023-02-15T06:32:19;20.30;40.30
56172;DHT22;42052;41.634;-0.946;2023-02-15T06:35:05;20.40;40.30
56172;DHT22;42052;41.634;-0.946;2023-02-15T06:37:52;20.40;42.00
56172;DHT22;42052;41.634;-0.946;2023-02-15T06:40:38;20.40;43.50
56172;DHT22;42052;41.634;-0.946;2023-02-15T06:43:24;20.40;42.30
56172;DHT22;42052;41.634;-0.946;2023-02-15T06:46:10;20.40;44.00
56172;DHT22;42052;41.634;-0.946;2023-02-15T06:48:56;20.40;44.50
56172;DHT22;42052;41.634;-0.946;2023-02-15T06:51:42;20.40;45.20
56172;DHT22;42052;41.634;-0.946;2023-02-15T06:54:28;20.40;45.10
56172;DHT22;42052;41.634;-0.946;2023-02-15T06:57:14;20.40;45.00
56172;DHT22;42052;41.634;-0.946;2023-02-15T07:00:01;20.40;44.90
56172;DHT22;42052;41.634;-0.946;2023-02-15T07:02:47;20.40;45.10
56172;DHT22;42052;41.634;-0.946;2023-02-15T07:05:34;20.40;44.70
56172;DHT22;42052;41.634;-0.946;2023-02-15T07:08:20;20.40;44.60
56172;DHT22;42052;41.634;-0.946;2023-02-15T07:11:07;20.30;44.10
56172;DHT22;42052;41.634;-0.946;2023-02-15T07:14:12;20.40;44.60
56172;DHT22;42052;41.634;-0.946;2023-02-15T07:16:58;20.30;44.50
56172;DHT22;42052;41.634;-0.946;2023-02-15T07:19:44;20.40;44.20
56172;DHT22;42052;41.634;-0.946;2023-02-15T07:22:30;20.30;43.70
56172;DHT22;42052;41.634;-0.946;2023-02-15T07:25:17;20.30;43.40
56172;DHT22;42052;41.634;-0.946;2023-02-15T07:28:04;20.30;43.20
56172;DHT22;42052;41.634;-0.946;2023-02-15T07:30:50;20.30;43.20
56172;DHT22;42052;41.634;-0.946;2023-02-15T07:33:36;20.30;43.10
56172;DHT22;42052;41.634;-0.946;2023-02-15T07:36:22;20.30;42.80
56172;DHT22;42052;41.634;-0.946;2023-02-15T07:39:08;20.20;42.80
56172;DHT22;42052;41.634;-0.946;2023-02-15T07:41:54;20.30;42.50
56172;DHT22;42052;41.634;-0.946;2023-02-15T07:44:40;20.20;42.50
56172;DHT22;42052;41.634;-0.946;2023-02-15T07:47:26;20.20;42.70
56172;DHT22;42052;41.634;-0.946;2023-02-15T07:50:12;20.20;42.50
56172;DHT22;42052;41.634;-0.946;2023-02-15T07:53:00;20.20;42.50
56172;DHT22;42052;41.634;-0.946;2023-02-15T07:55:46;20.10;42.30
56172;DHT22;42052;41.634;-0.946;2023-02-15T07:58:33;20.10;42.30
56172;DHT22;42052;41.634;-0.946;2023-02-15T08:01:38;20.20;42.00
56172;DHT22;42052;41.634;-0.946;2023-02-15T08:04:25;20.10;42.10
56172;DHT22;42052;41.634;-0.946;2023-02-15T08:07:11;20.10;43.00
56172;DHT22;42052;41.634;-0.946;2023-02-15T08:09:57;20.10;42.70
56172;DHT22;42052;41.634;-0.946;2023-02-15T08:12:45;20.10;42.20
56172;DHT22;42052;41.634;-0.946;2023-02-15T08:15:31;20.10;42.70
56172;DHT22;42052;41.634;-0.946;2023-02-15T08:18:17;20.10;41.90
56172;DHT22;42052;41.634;-0.946;2023-02-15T08:21:03;20.00;41.50
56172;DHT22;42052;41.634;-0.946;2023-02-15T08:23:51;20.10;41.70
56172;DHT22;42052;41.634;-0.946;2023-02-15T08:26:38;20.00;41.60
56172;DHT22;42052;41.634;-0.946;2023-02-15T08:29:28;20.00;41.70
56172;DHT22;42052;41.634;-0.946;2023-02-15T08:32:14;20.00;41.40
56172;DHT22;42052;41.634;-0.946;2023-02-15T08:35:00;20.00;41.70
56172;DHT22;42052;41.634;-0.946;2023-02-15T08:37:46;20.00;41.20
56172;DHT22;42052;41.634;-0.946;2023-02-15T08:40:32;20.00;42.00
56172;DHT22;42052;41.634;-0.946;2023-02-15T08:43:20;20.00;41.70
56172;DHT22;42052;41.634;-0.946;2023-02-15T08:46:07;19.90;41.30
56172;DHT22;42052;41.634;-0.946;2023-02-15T08:48:54;19.90;41.10
56172;DHT22;42052;41.634;-0.946;2023-02-15T08:51:40;20.00;41.00
56172;DHT22;42052;41.634;-0.946;2023-02-15T08:54:26;19.90;41.00
56172;DHT22;42052;41.634;-0.946;2023-02-15T08:57:12;19.90;41.30
56172;DHT22;42052;41.634;-0.946;2023-02-15T08:59:58;19.90;41.20
56172;DHT22;42052;41.634;-0.946;2023-02-15T09:02:44;19.90;40.80
56172;DHT22;42052;41.634;-0.946;2023-02-15T09:05:30;19.90;41.10
56172;DHT22;42052;41.634;-0.946;2023-02-15T09:08:16;19.90;40.80
56172;DHT22;42052;41.634;-0.946;2023-02-15T09:11:26;19.90;40.90
56172;DHT22;42052;41.634;-0.946;2023-02-15T09:14:17;19.90;40.90
56172;DHT22;42052;41.634;-0.946;2023-02-15T09:17:05;19.80;40.90
56172;DHT22;42052;41.634;-0.946;2023-02-15T09:19:51;19.80;40.70
56172;DHT22;42052;41.634;-0.946;2023-02-15T09:22:37;19.80;41.00
56172;DHT22;42052;41.634;-0.946;2023-02-15T09:25:23;19.80;40.90
56172;DHT22;42052;41.634;-0.946;2023-02-15T09:28:10;19.80;40.90
56172;DHT22;42052;41.634;-0.946;2023-02-15T09:30:56;19.80;40.80
56172;DHT22;42052;41.634;-0.946;2023-02-15T09:33:43;19.80;40.60
56172;DHT22;42052;41.634;-0.946;2023-02-15T09:36:31;19.80;40.70
56172;DHT22;42052;41.634;-0.946;2023-02-15T09:39:23;19.80;40.50
56172;DHT22;42052;41.634;-0.946;2023-02-15T09:48:40;19.90;40.30
56172;DHT22;42052;41.634;-0.946;2023-02-15T09:51:48;19.90;40.40
56172;DHT22;42052;41.634;-0.946;2023-02-15T10:04:37;19.90;40.50
56172;DHT22;42052;41.634;-0.946;2023-02-15T10:07:33;19.80;40.40
56172;DHT22;42052;41.634;-0.946;2023-02-15T10:10:40;19.80;40.50
56172;DHT22;42052;41.634;-0.946;2023-02-15T10:13:38;19.80;40.60
56172;DHT22;42052;41.634;-0.946;2023-02-15T10:34:26;19.80;40.10
56172;DHT22;42052;41.634;-0.946;2023-02-15T10:38:25;19.80;40.10
56172;DHT22;42052;41.634;-0.946;2023-02-15T10:43:49;19.80;39.70
56172;DHT22;42052;41.634;-0.946;2023-02-15T10:50:07;19.80;39.60
56172;DHT22;42052;41.634;-0.946;2023-02-15T10:56:34;19.90;39.70
56172;DHT22;42052;41.634;-0.946;2023-02-15T11:06:09;19.90;39.60
56172;DHT22;42052;41.634;-0.946;2023-02-15T11:09:03;19.90;39.70
56172;DHT22;42052;41.634;-0.946;2023-02-15T11:11:53;19.90;39.50
56172;DHT22;42052;41.634;-0.946;2023-02-15T11:14:46;19.90;40.20
56172;DHT22;42052;41.634;-0.946;2023-02-15T11:17:39;19.90;39.50
56172;DHT22;42052;41.634;-0.946;2023-02-15T11:20:28;19.90;39.40
56172;DHT22;42052;41.634;-0.946;2023-02-15T11:23:16;19.90;39.50
56172;DHT22;42052;41.634;-0.946;2023-02-15T11:26:09;19.90;39.70
56172;DHT22;42052;41.634;-0.946;2023-02-15T11:32:31;19.90;39.50
56172;DHT22;42052;41.634;-0.946;2023-02-15T11:35:37;19.90;39.50
56172;DHT22;42052;41.634;-0.946;2023-02-15T11:38:32;19.90;39.50
56172;DHT22;42052;41.634;-0.946;2023-02-15T11:41:22;19.90;39.50
56172;DHT22;42052;41.634;-0.946;2023-02-15T11:44:29;19.90;39.50
56172;DHT22;42052;41.634;-0.946;2023-02-15T11:47:17;19.90;39.70
56172;DHT22;42052;41.634;-0.946;2023-02-15T11:50:03;19.90;39.60
56172;DHT22;42052;41.634;-0.946;2023-02-15T11:52:52;20.00;39.70
56172;DHT22;42052;41.634;-0.946;2023-02-15T11:55:38;20.00;39.70
56172;DHT22;42052;41.634;-0.946;2023-02-15T11:58:30;19.90;39.60
56172;DHT22;42052;41.634;-0.946;2023-02-15T12:07:34;19.90;39.70
56172;DHT22;42052;41.634;-0.946;2023-02-15T12:10:31;19.90;39.60
56172;DHT22;42052;41.634;-0.946;2023-02-15T12:13:20;19.90;39.60
56172;DHT22;42052;41.634;-0.946;2023-02-15T12:16:09;20.00;39.70
56172;DHT22;42052;41.634;-0.946;2023-02-15T12:18:59;19.90;39.60
56172;DHT22;42052;41.634;-0.946;2023-02-15T12:21:50;19.90;39.60
56172;DHT22;42052;41.634;-0.946;2023-02-15T12:24:43;20.00;39.60
56172;DHT22;42052;41.634;-0.946;2023-02-15T12:27:33;19.90;39.50
56172;DHT22;42052;41.634;-0.946;2023-02-15T12:33:39;20.00;39.70
56172;DHT22;42052;41.634;-0.946;2023-02-15T12:36:32;20.00;39.60
56172;DHT22;42052;41.634;-0.946;2023-02-15T12:42:16;20.00;39.70
56172;DHT22;42052;41.634;-0.946;2023-02-15T12:45:20;20.00;39.50
56172;DHT22;42052;41.634;-0.946;2023-02-15T12:48:18;19.90;39.50
56172;DHT22;42052;41.634;-0.946;2023-02-15T12:51:13;20.00;39.60
56172;DHT22;42052;41.634;-0.946;2023-02-15T12:54:00;20.00;39.50
56172;DHT22;42052;41.634;-0.946;2023-02-15T12:56:50;19.90;39.40
56172;DHT22;42052;41.634;-0.946;2023-02-15T12:59:36;19.90;39.50
56172;DHT22;42052;41.634;-0.946;2023-02-15T13:02:29;19.90;39.50
56172;DHT22;42052;41.634;-0.946;2023-02-15T13:05:27;19.90;39.50
56172;DHT22;42052;41.634;-0.946;2023-02-15T13:11:12;19.90;39.50
56172;DHT22;42052;41.634;-0.946;2023-02-15T13:14:03;19.90;39.50
56172;DHT22;42052;41.634;-0.946;2023-02-15T13:17:02;20.00;39.50
56172;DHT22;42052;41.634;-0.946;2023-02-15T13:19:53;19.90;39.40
56172;DHT22;42052;41.634;-0.946;2023-02-15T13:22:45;19.90;39.50
56172;DHT22;42052;41.634;-0.946;2023-02-15T13:25:39;19.90;39.40
56172;DHT22;42052;41.634;-0.946;2023-02-15T13:28:44;20.00;39.40
56172;DHT22;42052;41.634;-0.946;2023-02-15T13:31:32;20.00;39.50
56172;DHT22;42052;41.634;-0.946;2023-02-15T13:34:36;20.00;39.40
56172;DHT22;42052;41.634;-0.946;2023-02-15T13:40:53;20.00;39.50
56172;DHT22;42052;41.634;-0.946;2023-02-15T13:44:04;20.00;39.50
56172;DHT22;42052;41.634;-0.946;2023-02-15T14:02:45;20.00;39.40
56172;DHT22;42052;41.634;-0.946;2023-02-15T14:09:10;19.90;39.30
56172;DHT22;42052;41.634;-0.946;2023-02-15T14:15:26;19.90;39.40
56172;DHT22;42052;41.634;-0.946;2023-02-15T14:24:30;19.90;39.40
56172;DHT22;42052;41.634;-0.946;2023-02-15T14:27:31;20.00;39.40
56172;DHT22;42052;41.634;-0.946;2023-02-15T14:30:24;20.00;39.40
56172;DHT22;42052;41.634;-0.946;2023-02-15T14:36:03;20.00;39.40
56172;DHT22;42052;41.634;-0.946;2023-02-15T14:43:29;19.90;39.40
56172;DHT22;42052;41.634;-0.946;2023-02-15T14:49:21;19.90;39.40
56172;DHT22;42052;41.634;-0.946;2023-02-15T14:52:09;20.00;39.40
56172;DHT22;42052;41.634;-0.946;2023-02-15T14:54:58;20.00;39.40
56172;DHT22;42052;41.634;-0.946;2023-02-15T14:57:56;19.90;39.40
56172;DHT22;42052;41.634;-0.946;2023-02-15T15:00:44;20.00;39.50
56172;DHT22;42052;41.634;-0.946;2023-02-15T15:03:30;19.90;39.40
56172;DHT22;42052;41.634;-0.946;2023-02-15T15:06:34;20.00;39.40
56172;DHT22;42052;41.634;-0.946;2023-02-15T15:09:25;20.00;39.40
56172;DHT22;42052;41.634;-0.946;2023-02-15T15:12:13;20.00;39.30
56172;DHT22;42052;41.634;-0.946;2023-02-15T15:15:00;20.00;39.30
56172;DHT22;42052;41.634;-0.946;2023-02-15T15:20:48;20.00;40.10
56172;DHT22;42052;41.634;-0.946;2023-02-15T15:23:43;20.00;39.30
56172;DHT22;42052;41.634;-0.946;2023-02-15T15:26:31;19.90;39.30
56172;DHT22;42052;41.634;-0.946;2023-02-15T15:29:41;20.00;39.40
56172;DHT22;42052;41.634;-0.946;2023-02-15T15:32:32;20.00;39.40
56172;DHT22;42052;41.634;-0.946;2023-02-15T15:41:48;20.00;39.50
56172;DHT22;42052;41.634;-0.946;2023-02-15T15:44:54;19.90;39.30
56172;DHT22;42052;41.634;-0.946;2023-02-15T15:50:59;19.90;39.20
56172;DHT22;42052;41.634;-0.946;2023-02-15T15:53:48;19.90;39.20
56172;DHT22;42052;41.634;-0.946;2023-02-15T15:56:37;20.00;39.20
56172;DHT22;42052;41.634;-0.946;2023-02-15T15:59:29;20.00;39.20
56172;DHT22;42052;41.634;-0.946;2023-02-15T16:02:17;19.90;39.40
56172;DHT22;42052;41.634;-0.946;2023-02-15T16:05:09;20.00;39.50
56172;DHT22;42052;41.634;-0.946;2023-02-15T16:07:56;19.90;39.60
56172;DHT22;42052;41.634;-0.946;2023-02-15T16:10:42;20.00;39.70
56172;DHT22;42052;41.634;-0.946;2023-02-15T16:13:28;20.00;39.70
56172;DHT22;42052;41.634;-0.946;2023-02-15T16:16:21;20.00;39.70
56172;DHT22;42052;41.634;-0.946;2023-02-15T16:19:18;20.00;39.70
56172;DHT22;42052;41.634;-0.946;2023-02-15T16:22:18;20.00;39.70
56172;DHT22;42052;41.634;-0.946;2023-02-15T16:25:26;20.00;39.60
56172;DHT22;42052;41.634;-0.946;2023-02-15T16:28:15;20.00;39.60
56172;DHT22;42052;41.634;-0.946;2023-02-15T16:31:22;20.00;39.60
56172;DHT22;42052;41.634;-0.946;2023-02-15T16:34:16;20.00;39.60
56172;DHT22;42052;41.634;-0.946;2023-02-15T16:37:16;20.00;39.60
56172;DHT22;42052;41.634;-0.946;2023-02-15T16:40:03;20.00;39.60
56172;DHT22;42052;41.634;-0.946;2023-02-15T16:42:56;20.00;39.60
56172;DHT22;42052;41.634;-0.946;2023-02-15T16:45:46;20.00;39.60
56172;DHT22;42052;41.634;-0.946;2023-02-15T16:48:33;20.00;39.50
56172;DHT22;42052;41.634;-0.946;2023-02-15T16:51:31;20.00;39.50
56172;DHT22;42052;41.634;-0.946;2023-02-15T16:54:21;20.00;39.50
56172;DHT22;42052;41.634;-0.946;2023-02-15T16:57:17;20.00;39.60
56172;DHT22;42052;41.634;-0.946;2023-02-15T17:00:06;20.00;39.60
56172;DHT22;42052;41.634;-0.946;2023-02-15T17:03:02;20.00;39.50
56172;DHT22;42052;41.634;-0.946;2023-02-15T17:05:57;20.10;39.40
56172;DHT22;42052;41.634;-0.946;2023-02-15T17:08:44;20.20;39.40
56172;DHT22;42052;41.634;-0.946;2023-02-15T17:11:37;20.30;39.20
56172;DHT22;42052;41.634;-0.946;2023-02-15T17:14:30;20.40;38.90
56172;DHT22;42052;41.634;-0.946;2023-02-15T17:17:16;20.50;38.80
56172;DHT22;42052;41.634;-0.946;2023-02-15T17:20:02;20.50;38.90
56172;DHT22;42052;41.634;-0.946;2023-02-15T17:22:48;20.50;38.90
56172;DHT22;42052;41.634;-0.946;2023-02-15T17:25:39;20.60;38.80
56172;DHT22;42052;41.634;-0.946;2023-02-15T17:28:29;20.70;38.80
56172;DHT22;42052;41.634;-0.946;2023-02-15T17:31:18;20.70;38.90
56172;DHT22;42052;41.634;-0.946;2023-02-15T17:34:04;20.70;38.70
56172;DHT22;42052;41.634;-0.946;2023-02-15T17:36:57;20.70;38.70
56172;DHT22;42052;41.634;-0.946;2023-02-15T17:39:45;20.70;38.70
56172;DHT22;42052;41.634;-0.946;2023-02-15T17:42:31;20.70;38.70
56172;DHT22;42052;41.634;-0.946;2023-02-15T17:45:17;20.70;38.80
56172;DHT22;42052;41.634;-0.946;2023-02-15T17:48:05;20.70;38.90
56172;DHT22;42052;41.634;-0.946;2023-02-15T17:50:51;20.60;38.80
56172;DHT22;42052;41.634;-0.946;2023-02-15T17:53:38;20.70;39.00
56172;DHT22;42052;41.634;-0.946;2023-02-15T17:56:24;20.60;38.90
56172;DHT22;42052;41.634;-0.946;2023-02-15T17:59:10;20.60;39.00
56172;DHT22;42052;41.634;-0.946;2023-02-15T18:01:58;20.60;39.10
56172;DHT22;42052;41.634;-0.946;2023-02-15T18:05:04;20.60;39.10
56172;DHT22;42052;41.634;-0.946;2023-02-15T18:08:15;20.60;39.10
56172;DHT22;42052;41.634;-0.946;2023-02-15T18:11:21;20.60;39.10
56172;DHT22;42052;41.634;-0.946;2023-02-15T18:14:20;20.60;39.10
56172;DHT22;42052;41.634;-0.946;2023-02-15T18:17:11;20.60;39.20
56172;DHT22;42052;41.634;-0.946;2023-02-15T18:20:05;20.60;39.20
56172;DHT22;42052;41.634;-0.946;2023-02-15T18:22:54;20.60;39.30
56172;DHT22;42052;41.634;-0.946;2023-02-15T18:25:41;20.60;39.20
56172;DHT22;42052;41.634;-0.946;2023-02-15T18:28:29;20.60;39.20
56172;DHT22;42052;41.634;-0.946;2023-02-15T18:31:16;20.60;39.20
56172;DHT22;42052;41.634;-0.946;2023-02-15T18:34:04;20.60;39.10
56172;DHT22;42052;41.634;-0.946;2023-02-15T18:36:51;20.60;39.20
56172;DHT22;42052;41.634;-0.946;2023-02-15T18:39:51;20.60;39.20
56172;DHT22;42052;41.634;-0.946;2023-02-15T18:42:40;20.60;38.80
56172;DHT22;42052;41.634;-0.946;2023-02-15T18:45:31;20.60;39.00
56172;DHT22;42052;41.634;-0.946;2023-02-15T18:48:19;20.60;39.00
56172;DHT22;42052;41.634;-0.946;2023-02-15T18:51:20;20.60;39.00
56172;DHT22;42052;41.634;-0.946;2023-02-15T18:54:18;20.60;39.00
56172;DHT22;42052;41.634;-0.946;2023-02-15T18:57:04;20.60;39.70
56172;DHT22;42052;41.634;-0.946;2023-02-15T18:59:50;20.60;39.00
56172;DHT22;42052;41.634;-0.946;2023-02-15T19:02:37;20.60;38.90
56172;DHT22;42052;41.634;-0.946;2023-02-15T19:05:24;20.60;39.00
56172;DHT22;42052;41.634;-0.946;2023-02-15T19:08:20;20.60;39.00
56172;DHT22;42052;41.634;-0.946;2023-02-15T19:11:16;20.60;38.90
56172;DHT22;42052;41.634;-0.946;2023-02-15T19:14:04;20.60;38.90
56172;DHT22;42052;41.634;-0.946;2023-02-15T19:16:51;20.60;39.00
56172;DHT22;42052;41.634;-0.946;2023-02-15T19:19:37;20.60;39.00
56172;DHT22;42052;41.634;-0.946;2023-02-15T19:22:29;20.60;39.00
56172;DHT22;42052;41.634;-0.946;2023-02-15T19:25:24;20.60;39.00
56172;DHT22;42052;41.634;-0.946;2023-02-15T19:28:15;20.60;39.00
56172;DHT22;42052;41.634;-0.946;2023-02-15T19:31:02;20.60;39.70
56172;DHT22;42052;41.634;-0.946;2023-02-15T19:33:48;20.60;38.90
56172;DHT22;42052;41.634;-0.946;2023-02-15T19:36:34;20.60;38.90
56172;DHT22;42052;41.634;-0.946;2023-02-15T19:39:27;20.60;38.80
56172;DHT22;42052;41.634;-0.946;2023-02-15T19:42:15;20.60;38.80
56172;DHT22;42052;41.634;-0.946;2023-02-15T19:45:12;20.60;38.90
56172;DHT22;42052;41.634;-0.946;2023-02-15T19:48:00;20.60;39.00
56172;DHT22;42052;41.634;-0.946;2023-02-15T19:50:47;20.60;38.90
56172;DHT22;42052;41.634;-0.946;2023-02-15T19:53:33;20.60;38.90
56172;DHT22;42052;41.634;-0.946;2023-02-15T19:56:21;20.60;38.90
56172;DHT22;42052;41.634;-0.946;2023-02-15T19:59:30;20.60;39.00
56172;DHT22;42052;41.634;-0.946;2023-02-15T20:02:16;20.60;38.90
56172;DHT22;42052;41.634;-0.946;2023-02-15T20:05:05;20.60;38.90
56172;DHT22;42052;41.634;-0.946;2023-02-15T20:07:51;20.70;39.00
56172;DHT22;42052;41.634;-0.946;2023-02-15T20:10:38;20.60;38.90